Time,TemperatureF,DewpointF,PressureIn,WindDirection,WindDirectionDegrees,WindSpeedMPH,WindSpeedGustMPH,Humidity,HourlyPrecipIn,Conditions,Clouds,dailyrainin,SoftwareType,DateUTC
2013-07-05 00:01:00,75.0,57.0,29.95,SE,140,9.0,-999.0,53,-99.99,,,-99.99,,2013-07-05 05:01:00,
2013-07-05 00:12:00,75.0,57.0,29.95,SE,140,10.0,-999.0,53,-99.99,,,-99.99,,2013-07-05 05:12:00,
2013-07-05 00:21:00,73.0,57.0,29.95,SE,140,12.0,17.0,56,-99.99,,,-99.99,,2013-07-05 05:21:00,
2013-07-05 00:33:00,73.0,57.0,29.95,SSE,150,12.0,-999.0,56,-99.99,,,-99.99,,2013-07-05 05:33:00,
2013-07-05 00:43:00,73.0,57.0,29.96,SE,140,10.0,-999.0,56,-99.99,,,-99.99,,2013-07-05 05:43:00,
2013-07-05 00:52:00,73.0,57.0,29.96,SE,140,10.0,-999.0,56,-99.99,,,-99.99,,2013-07-05 05:52:00,
2013-07-05 01:02:00,73.0,57.0,29.96,SE,140,12.0,-999.0,56,-99.99,,,-99.99,,2013-07-05 06:02:00,
2013-07-05 01:13:00,73.0,57.0,29.95,SE,140,9.0,-999.0,56,-99.99,,,-99.99,,2013-07-05 06:13:00,
2013-07-05 01:23:00,73.0,57.0,29.95,SSE,150,10.0,-999.0,56,-99.99,,,-99.99,,2013-07-05 06:23:00,
2013-07-05 01:34:00,73.0,57.0,29.95,SE,140,8.0,-999.0,56,-99.99,,,-99.99,,2013-07-05 06:34:00,
2013-07-05 01:43:00,73.0,59.0,29.95,SSE,150,7.0,-999.0,60,-99.99,,,-99.99,,2013-07-05 06:43:00,
2013-07-05 01:52:00,73.0,59.0,29.95,SE,140,7.0,-999.0,60,-99.99,,,-99.99,,2013-07-05 06:52:00,
2013-07-05 02:02:00,73.0,59.0,29.95,SSE,150,8.0,-999.0,60,-99.99,,,-99.99,,2013-07-05 07:02:00,
2013-07-05 02:12:00,73.0,61.0,29.95,SSE,150,9.0,-999.0,64,-99.99,,,-99.99,,2013-07-05 07:12:00,
2013-07-05 02:23:00,72.0,61.0,29.95,SSE,150,10.0,-999.0,68,-99.99,,,-99.99,,2013-07-05 07:23:00,
2013-07-05 02:33:00,72.0,61.0,29.95,SSE,150,9.0,-999.0,68,-99.99,,,-99.99,,2013-07-05 07:33:00,
2013-07-05 02:43:00,72.0,61.0,29.95,SSE,150,8.0,-999.0,68,-99.99,,,-99.99,,2013-07-05 07:43:00,
2013-07-05 02:53:00,72.0,61.0,29.95,SSE,150,10.0,-999.0,68,-99.99,,,-99.99,,2013-07-05 07:53:00,
2013-07-05 03:02:00,73.0,61.0,29.95,South,170,10.0,-999.0,64,-99.99,,,-99.99,,2013-07-05 08:02:00,
2013-07-05 03:12:00,73.0,61.0,29.94,SSE,160,13.0,-999.0,64,-99.99,,,-99.99,,2013-07-05 08:12:00,
2013-07-05 03:23:00,73.0,61.0,29.94,SSE,160,10.0,-999.0,64,-99.99,,,-99.99,,2013-07-05 08:23:00,
2013-07-05 03:33:00,73.0,61.0,29.94,SSE,160,12.0,-999.0,64,-99.99,,,-99.99,,2013-07-05 08:33:00,
2013-07-05 03:43:00,73.0,61.0,29.94,SSE,160,13.0,-999.0,64,-99.99,,,-99.99,,2013-07-05 08:43:00,
2013-07-05 03:53:00,72.0,61.0,29.95,SSE,160,9.0,-999.0,68,-99.99,,,-99.99,,2013-07-05 08:53:00,
2013-07-05 04:05:00,72.0,61.0,29.95,South,170,9.0,-999.0,68,-99.99,,,-99.99,,2013-07-05 09:05:00,
2013-07-05 04:14:00,72.0,61.0,29.95,SSE,160,8.0,-999.0,68,-99.99,,,-99.99,,2013-07-05 09:14:00,
2013-07-05 04:24:00,72.0,61.0,29.95,SSE,160,9.0,-999.0,68,-99.99,,,-99.99,,2013-07-05 09:24:00,
2013-07-05 04:36:00,72.0,61.0,29.94,SSE,160,9.0,-999.0,68,-99.99,,,-99.99,,2013-07-05 09:36:00,
2013-07-05 04:45:00,72.0,61.0,29.94,SSE,150,8.0,-999.0,68,-99.99,,,-99.99,,2013-07-05 09:45:00,
2013-07-05 04:53:00,72.0,61.0,29.95,SSE,150,8.0,-999.0,68,-99.99,,,-99.99,,2013-07-05 09:53:00,
2013-07-05 05:05:00,70.0,61.0,29.95,SE,140,9.0,-999.0,73,-99.99,,,-99.99,,2013-07-05 10:05:00,
2013-07-05 05:24:00,70.0,61.0,29.94,SSE,150,12.0,-999.0,73,-99.99,,,-99.99,,2013-07-05 10:24:00,
2013-07-05 05:35:00,70.0,61.0,29.94,SSE,150,12.0,-999.0,73,-99.99,,,-99.99,,2013-07-05 10:35:00,
2013-07-05 05:46:00,70.0,61.0,29.94,SSE,160,10.0,-999.0,73,-99.99,,,-99.99,,2013-07-05 10:46:00,
2013-07-05 05:55:00,70.0,61.0,29.94,SSE,160,9.0,-999.0,73,-99.99,,,-99.99,,2013-07-05 10:55:00,
2013-07-05 06:05:00,70.0,61.0,29.94,SSE,160,9.0,-999.0,73,-99.99,,,-99.99,,2013-07-05 11:05:00,
2013-07-05 06:15:00,70.0,61.0,29.93,SSE,160,9.0,-999.0,73,-99.99,,,-99.99,,2013-07-05 11:15:00,
2013-07-05 06:23:00,70.0,61.0,29.93,SSE,160,9.0,16.0,73,-99.99,,,-99.99,,2013-07-05 11:23:00,
2013-07-05 06:37:00,70.0,61.0,29.93,SSE,160,9.0,-999.0,73,-99.99,,,-99.99,,2013-07-05 11:37:00,
2013-07-05 06:45:00,70.0,61.0,29.93,South,170,9.0,-999.0,73,-99.99,,,-99.99,,2013-07-05 11:45:00,
2013-07-05 06:55:00,70.0,61.0,29.94,South,170,9.0,-999.0,73,-99.99,,,-99.99,,2013-07-05 11:55:00,
2013-07-05 07:05:00,70.0,61.0,29.93,South,180,9.0,-999.0,73,-99.99,,,-99.99,,2013-07-05 12:05:00,
2013-07-05 07:24:00,70.0,61.0,29.94,South,170,9.0,-999.0,73,-99.99,,,-99.99,,2013-07-05 12:24:00,
2013-07-05 07:35:00,70.0,61.0,29.94,SSE,160,9.0,-999.0,73,-99.99,,,-99.99,,2013-07-05 12:35:00,
2013-07-05 07:45:00,72.0,61.0,29.94,South,170,10.0,-999.0,68,-99.99,,,-99.99,,2013-07-05 12:45:00,
2013-07-05 07:54:00,72.0,61.0,29.94,South,180,12.0,17.0,68,-99.99,,,-99.99,,2013-07-05 12:54:00,
2013-07-05 08:05:00,73.0,61.0,29.94,South,180,14.0,-999.0,64,-99.99,,,-99.99,,2013-07-05 13:05:00,
2013-07-05 08:13:00,73.0,61.0,29.94,South,180,12.0,-999.0,64,-99.99,,,-99.99,,2013-07-05 13:13:00,
2013-07-05 08:23:00,73.0,61.0,29.94,South,180,12.0,20.0,64,-99.99,,,-99.99,,2013-07-05 13:23:00,
2013-07-05 08:37:00,75.0,61.0,29.94,South,180,12.0,18.0,60,-99.99,,,-99.99,,2013-07-05 13:37:00,
2013-07-05 08:46:00,75.0,61.0,29.94,South,170,14.0,23.0,60,-99.99,,,-99.99,,2013-07-05 13:46:00,
2013-07-05 08:54:00,75.0,61.0,29.95,South,170,17.0,24.0,60,-99.99,,,-99.99,,2013-07-05 13:54:00,
2013-07-05 09:06:00,75.0,61.0,29.94,South,170,16.0,23.0,60,-99.99,,,-99.99,,2013-07-05 14:06:00,
2013-07-05 09:13:00,79.0,59.0,29.94,South,180,20.0,30.0,50,-99.99,,,-99.99,,2013-07-05 14:13:00,
2013-07-05 09:25:00,79.0,59.0,29.95,South,180,22.0,35.0,50,-99.99,,,-99.99,,2013-07-05 14:25:00,
2013-07-05 09:36:00,79.0,59.0,29.94,South,170,23.0,33.0,50,-99.99,,,-99.99,,2013-07-05 14:36:00,
2013-07-05 09:45:00,81.0,61.0,29.94,South,170,16.0,31.0,50,-99.99,,,-99.99,,2013-07-05 14:45:00,
2013-07-05 09:54:00,81.0,61.0,29.94,South,170,16.0,30.0,50,-99.99,,,-99.99,,2013-07-05 14:54:00,
2013-07-05 10:05:00,81.0,61.0,29.94,South,170,20.0,24.0,50,-99.99,,,-99.99,,2013-07-05 15:05:00,
2013-07-05 10:14:00,82.0,61.0,29.94,South,170,21.0,29.0,48,-99.99,,,-99.99,,2013-07-05 15:14:00,
2013-07-05 10:22:00,81.0,61.0,29.93,South,170,18.0,25.0,50,-99.99,,,-99.99,,2013-07-05 15:22:00,
2013-07-05 10:33:00,82.0,61.0,29.93,South,170,14.0,25.0,48,-99.99,,,-99.99,,2013-07-05 15:33:00,
2013-07-05 10:43:00,82.0,61.0,29.93,SSE,160,20.0,25.0,48,-99.99,,,-99.99,,2013-07-05 15:43:00,
2013-07-05 11:01:00,84.0,61.0,29.93,South,170,22.0,31.0,45,-99.99,,,-99.99,,2013-07-05 16:01:00,
2013-07-05 11:11:00,82.0,61.0,29.93,SSE,160,17.0,29.0,48,-99.99,,,-99.99,,2013-07-05 16:11:00,
2013-07-05 11:44:00,84.0,61.0,29.93,SSE,160,17.0,25.0,45,-99.99,,,-99.99,,2013-07-05 16:44:00,
2013-07-05 11:53:00,84.0,59.0,29.93,South,190,21.0,25.0,42,-99.99,,,-99.99,,2013-07-05 16:53:00,
2013-07-05 12:01:00,86.0,59.0,29.93,South,170,21.0,27.0,40,-99.99,,,-99.99,,2013-07-05 17:01:00,
2013-07-05 12:12:00,88.0,59.0,29.93,South,170,21.0,25.0,37,-99.99,,,-99.99,,2013-07-05 17:12:00,
2013-07-05 12:22:00,88.0,59.0,29.93,SSE,160,21.0,28.0,37,-99.99,,,-99.99,,2013-07-05 17:22:00,
2013-07-05 12:33:00,88.0,59.0,29.93,South,170,20.0,28.0,37,-99.99,,,-99.99,,2013-07-05 17:33:00,
2013-07-05 12:43:00,90.0,57.0,29.92,South,180,24.0,29.0,33,-99.99,,,-99.99,,2013-07-05 17:43:00,
2013-07-05 12:53:00,88.0,57.0,29.92,South,170,18.0,25.0,35,-99.99,,,-99.99,,2013-07-05 17:53:00,
2013-07-05 13:01:00,88.0,57.0,29.92,SSE,150,20.0,28.0,35,-99.99,,,-99.99,,2013-07-05 18:01:00,
2013-07-05 13:11:00,90.0,59.0,29.92,South,170,22.0,28.0,35,-99.99,,,-99.99,,2013-07-05 18:11:00,
2013-07-05 13:22:00,90.0,59.0,29.91,SSE,150,18.0,25.0,35,-99.99,,,-99.99,,2013-07-05 18:22:00,
2013-07-05 13:33:00,90.0,59.0,29.91,South,170,18.0,28.0,35,-99.99,,,-99.99,,2013-07-05 18:33:00,
2013-07-05 13:43:00,90.0,61.0,29.91,South,190,18.0,28.0,38,-99.99,,,-99.99,,2013-07-05 18:43:00,
2013-07-05 13:53:00,90.0,61.0,29.91,SSE,160,20.0,27.0,38,-99.99,,,-99.99,,2013-07-05 18:53:00,
2013-07-05 14:01:00,90.0,59.0,29.91,SSE,160,18.0,29.0,35,-99.99,,,-99.99,,2013-07-05 19:01:00,
2013-07-05 14:22:00,91.0,61.0,29.91,SSE,160,16.0,24.0,36,-99.99,,,-99.99,,2013-07-05 19:22:00,
2013-07-05 14:33:00,91.0,61.0,29.90,SSE,150,15.0,27.0,36,-99.99,,,-99.99,,2013-07-05 19:33:00,
2013-07-05 14:42:00,91.0,61.0,29.90,SSE,160,20.0,25.0,36,-99.99,,,-99.99,,2013-07-05 19:42:00,
2013-07-05 14:52:00,91.0,61.0,29.89,SSE,150,15.0,28.0,36,-99.99,,,-99.99,,2013-07-05 19:52:00,
2013-07-05 15:01:00,91.0,61.0,29.89,SSE,160,20.0,25.0,36,-99.99,,,-99.99,,2013-07-05 20:01:00,
2013-07-05 15:11:00,91.0,61.0,29.89,SSE,160,18.0,31.0,36,-99.99,,,-99.99,,2013-07-05 20:11:00,
2013-07-05 15:22:00,91.0,61.0,29.89,SSE,150,17.0,21.0,36,-99.99,,,-99.99,,2013-07-05 20:22:00,
2013-07-05 15:33:00,91.0,61.0,29.89,SSE,160,20.0,25.0,36,-99.99,,,-99.99,,2013-07-05 20:33:00,
2013-07-05 15:43:00,91.0,61.0,29.88,South,170,17.0,27.0,36,-99.99,,,-99.99,,2013-07-05 20:43:00,
2013-07-05 15:53:00,93.0,61.0,29.88,South,170,20.0,24.0,34,-99.99,,,-99.99,,2013-07-05 20:53:00,
2013-07-05 16:01:00,93.0,61.0,29.88,SSE,150,18.0,27.0,34,-99.99,,,-99.99,,2013-07-05 21:01:00,
2013-07-05 16:11:00,93.0,61.0,29.87,SSE,160,17.0,27.0,34,-99.99,,,-99.99,,2013-07-05 21:11:00,
2013-07-05 16:21:00,93.0,61.0,29.87,SSE,150,17.0,28.0,34,-99.99,,,-99.99,,2013-07-05 21:21:00,
2013-07-05 16:34:00,93.0,61.0,29.86,SSE,150,17.0,28.0,34,-99.99,,,-99.99,,2013-07-05 21:34:00,
2013-07-05 16:42:00,93.0,61.0,29.86,SSE,150,15.0,25.0,34,-99.99,,,-99.99,,2013-07-05 21:42:00,
2013-07-05 16:53:00,91.0,61.0,29.86,SSE,150,18.0,27.0,36,-99.99,,,-99.99,,2013-07-05 21:53:00,
2013-07-05 17:01:00,93.0,61.0,29.86,SSE,160,21.0,29.0,34,-99.99,,,-99.99,,2013-07-05 22:01:00,
2013-07-05 17:11:00,93.0,61.0,29.86,SSE,150,17.0,27.0,34,-99.99,,,-99.99,,2013-07-05 22:11:00,
2013-07-05 17:21:00,91.0,61.0,29.85,SSE,150,13.0,27.0,36,-99.99,,,-99.99,,2013-07-05 22:21:00,
2013-07-05 17:33:00,91.0,61.0,29.85,SSE,150,13.0,23.0,36,-99.99,,,-99.99,,2013-07-05 22:33:00,
2013-07-05 17:43:00,93.0,61.0,29.84,SSE,160,13.0,20.0,34,-99.99,,,-99.99,,2013-07-05 22:43:00,
2013-07-05 17:53:00,91.0,59.0,29.84,SSE,160,16.0,24.0,33,-99.99,,,-99.99,,2013-07-05 22:53:00,
2013-07-05 18:02:00,91.0,57.0,29.84,SSE,160,14.0,25.0,31,-99.99,,,-99.99,,2013-07-05 23:02:00,
2013-07-05 18:11:00,91.0,59.0,29.84,SSE,150,15.0,20.0,33,-99.99,,,-99.99,,2013-07-05 23:11:00,
2013-07-05 18:23:00,91.0,61.0,29.84,SSE,150,10.0,22.0,36,-99.99,,,-99.99,,2013-07-05 23:23:00,
2013-07-05 18:32:00,91.0,61.0,29.83,SSE,150,13.0,16.0,36,-99.99,,,-99.99,,2013-07-05 23:32:00,
2013-07-05 18:43:00,93.0,59.0,29.83,SSE,150,15.0,21.0,31,-99.99,,,-99.99,,2013-07-05 23:43:00,
2013-07-05 18:53:00,91.0,61.0,29.83,SSE,160,16.0,24.0,36,-99.99,,,-99.99,,2013-07-05 23:53:00,
2013-07-05 19:01:00,91.0,61.0,29.83,SSE,150,14.0,22.0,36,-99.99,,,-99.99,,2013-07-06 00:01:00,
2013-07-05 19:11:00,91.0,57.0,29.83,SSE,150,10.0,24.0,31,-99.99,,,-99.99,,2013-07-06 00:11:00,
2013-07-05 19:22:00,91.0,57.0,29.83,SSE,150,14.0,20.0,31,-99.99,,,-99.99,,2013-07-06 00:22:00,
2013-07-05 19:33:00,91.0,57.0,29.82,SSE,160,12.0,20.0,31,-99.99,,,-99.99,,2013-07-06 00:33:00,
2013-07-05 19:42:00,90.0,57.0,29.82,SSE,160,13.0,-999.0,33,-99.99,,,-99.99,,2013-07-06 00:42:00,
2013-07-05 19:53:00,90.0,59.0,29.83,SSE,150,12.0,18.0,35,-99.99,,,-99.99,,2013-07-06 00:53:00,
2013-07-05 20:02:00,90.0,61.0,29.83,SSE,150,15.0,21.0,38,-99.99,,,-99.99,,2013-07-06 01:02:00,
2013-07-05 20:12:00,90.0,61.0,29.84,SSE,150,20.0,25.0,38,-99.99,,,-99.99,,2013-07-06 01:12:00,
2013-07-05 20:22:00,90.0,61.0,29.84,SSE,150,16.0,24.0,38,-99.99,,,-99.99,,2013-07-06 01:22:00,
2013-07-05 20:33:00,88.0,61.0,29.85,SSE,150,12.0,23.0,40,-99.99,,,-99.99,,2013-07-06 01:33:00,
2013-07-05 20:42:00,88.0,59.0,29.85,SE,140,17.0,23.0,37,-99.99,,,-99.99,,2013-07-06 01:42:00,
2013-07-05 20:53:00,84.0,59.0,29.86,SE,130,14.0,23.0,42,-99.99,,,-99.99,,2013-07-06 01:53:00,
2013-07-05 21:02:00,84.0,59.0,29.86,SE,140,14.0,22.0,42,-99.99,,,-99.99,,2013-07-06 02:02:00,
2013-07-05 21:11:00,84.0,57.0,29.86,SE,140,13.0,-999.0,39,-99.99,,,-99.99,,2013-07-06 02:11:00,
2013-07-05 21:22:00,82.0,59.0,29.86,SE,140,14.0,-999.0,45,-99.99,,,-99.99,,2013-07-06 02:22:00,
2013-07-05 21:33:00,82.0,57.0,29.86,SE,140,14.0,21.0,42,-99.99,,,-99.99,,2013-07-06 02:33:00,
2013-07-05 21:43:00,82.0,57.0,29.87,SE,140,12.0,18.0,42,-99.99,,,-99.99,,2013-07-06 02:43:00,
2013-07-05 21:52:00,82.0,57.0,29.87,SE,140,14.0,23.0,42,-99.99,,,-99.99,,2013-07-06 02:52:00,
2013-07-05 22:02:00,82.0,57.0,29.88,SE,140,13.0,20.0,42,-99.99,,,-99.99,,2013-07-06 03:02:00,
2013-07-05 22:11:00,81.0,57.0,29.88,SE,140,15.0,20.0,44,-99.99,,,-99.99,,2013-07-06 03:11:00,
2013-07-05 22:22:00,81.0,57.0,29.88,SE,140,13.0,20.0,44,-99.99,,,-99.99,,2013-07-06 03:22:00,
2013-07-05 22:34:00,81.0,57.0,29.89,SE,140,14.0,21.0,44,-99.99,,,-99.99,,2013-07-06 03:34:00,
2013-07-05 22:43:00,81.0,57.0,29.88,SE,140,14.0,20.0,44,-99.99,,,-99.99,,2013-07-06 03:43:00,
2013-07-05 22:52:00,81.0,57.0,29.89,SE,140,13.0,21.0,44,-99.99,,,-99.99,,2013-07-06 03:52:00,
2013-07-05 23:02:00,81.0,57.0,29.89,SE,140,14.0,18.0,44,-99.99,,,-99.99,,2013-07-06 04:02:00,
2013-07-05 23:12:00,81.0,57.0,29.89,SE,140,13.0,20.0,44,-99.99,,,-99.99,,2013-07-06 04:12:00,
2013-07-05 23:33:00,79.0,59.0,29.89,SE,140,14.0,22.0,50,-99.99,,,-99.99,,2013-07-06 04:33:00,
2013-07-05 23:43:00,79.0,59.0,29.90,SE,140,13.0,20.0,50,-99.99,,,-99.99,,2013-07-06 04:43:00,
2013-07-05 23:53:00,79.0,59.0,29.90,SE,140,13.0,17.0,50,-99.99,,,-99.99,,2013-07-06 04:53:00,